Terminal Aerodrome Forecast
Issued by NWS

Home | Current Version | Previous Version | Text Only | Print | Product List | Glossary On
Versions: 1 2 3 4 5 6 7 8 9 10 11 12 13 14 15
000
FTUS45 KABQ 270100 AAA
TAFROW
TAF AMD
KROW 270145Z 2702/2724 04006KT P6SM OVC090
     FM270300 34007KT P6SM BKN100
     FM271600 02007KT P6SM BKN100=

USA.gov is the U.S. government's official web portal to all federal, state and local government web resources and services.